Time;durP1;ratioP1;P1;durP2;ratioP2;P2;SDS_P1;SDS_P2;PMS_P1;PMS_P2;Temp;Humidity;BMP_temperature;BMP_pressure;BME280_temperature;BME280_humidity;BME280_pressure;Samples;Min_cycle;Max_cycle;Signal;HPM_P1;HPM_P2
2023/05/20 00:00:06;;;;;;;0.50;0.50;;;22.90;38.90;;;;;;6338582;28;20378;-54
2023/05/20 00:03:08;;;;;;;0.50;0.40;;;23.00;38.80;;;;;;6320016;28;20075;-56
2023/05/20 00:06:09;;;;;;;0.63;0.57;;;23.00;39.20;;;;;;6337258;28;20801;-54
2023/05/20 00:09:11;;;;;;;0.50;0.32;;;22.80;39.00;;;;;;6338607;28;20036;-55
2023/05/20 00:12:13;;;;;;;0.80;0.55;;;22.90;39.20;;;;;;6337110;28;20031;-55
2023/05/20 00:15:15;;;;;;;0.73;0.65;;;22.90;39.20;;;;;;6331822;28;20119;-56
2023/05/20 00:18:16;;;;;;;0.40;0.40;;;23.00;39.50;;;;;;6336761;28;20063;-57
2023/05/20 00:21:17;;;;;;;;;;;22.40;39.20;;;;;;6337548;28;20028;-57
2023/05/20 00:24:19;;;;;;;0.70;0.70;;;22.80;39.70;;;;;;6338801;28;19923;-57
2023/05/20 00:27:21;;;;;;;0.73;0.60;;;22.70;39.50;;;;;;6330825;28;20046;-56
2023/05/20 00:30:23;;;;;;;0.77;0.60;;;22.80;39.60;;;;;;6338683;28;20526;-56
2023/05/20 00:33:24;;;;;;;0.63;0.60;;;22.70;39.80;;;;;;6338909;28;20084;-55
2023/05/20 00:36:26;;;;;;;0.60;0.50;;;22.60;39.90;;;;;;6335868;28;20048;-54
2023/05/20 00:39:29;;;;;;;0.70;0.40;;;22.70;40.00;;;;;;6337697;28;20040;-54
2023/05/20 00:42:31;;;;;;;0.52;0.50;;;22.70;39.90;;;;;;6339235;28;20042;-54
2023/05/20 00:45:33;;;;;;;0.82;0.68;;;22.50;40.00;;;;;;6335872;28;20032;-56
2023/05/20 00:48:42;;;;;;;0.70;0.70;;;22.70;40.30;;;;;;6338308;28;20036;-57
2023/05/20 00:51:44;;;;;;;0.65;0.57;;;22.70;40.20;;;;;;6337351;28;20032;-55
2023/05/20 00:54:46;;;;;;;0.65;0.55;;;22.30;40.80;;;;;;6338260;28;20498;-56
2023/05/20 00:57:49;;;;;;;0.70;0.60;;;22.70;40.30;;;;;;6338184;28;20075;-56
2023/05/20 01:00:50;;;;;;;0.50;0.50;;;22.70;40.40;;;;;;6336082;28;20063;-56
2023/05/20 01:03:52;;;;;;;0.63;0.40;;;22.50;40.30;;;;;;6336242;28;20036;-55
2023/05/20 01:06:54;;;;;;;1.00;0.60;;;22.70;40.70;;;;;;6337363;28;20546;-57
2023/05/20 01:09:57;;;;;;;1.13;0.60;;;22.60;40.40;;;;;;6334516;28;20071;-57
2023/05/20 01:13:04;;;;;;;0.73;0.70;;;22.60;40.60;;;;;;6390004;22;20060;-53
2023/05/20 01:16:09;;;;;;;0.82;0.60;;;22.50;40.60;;;;;;6304797;28;20074;-52
2023/05/20 01:19:26;;;;;;;0.90;0.68;;;22.50;40.60;;;;;;6323538;28;20036;-52
2023/05/20 01:22:28;;;;;;;0.80;0.55;;;22.40;41.00;;;;;;6304901;28;20048;-51
2023/05/20 01:25:30;;;;;;;0.75;0.50;;;22.50;40.80;;;;;;6322799;28;20044;-50
2023/05/20 01:28:32;;;;;;;0.68;0.50;;;22.60;40.90;;;;;;6328622;28;20016;-52
2023/05/20 01:31:37;;;;;;;0.60;0.45;;;22.50;41.00;;;;;;6307409;28;20036;-50
2023/05/20 01:34:42;;;;;;;0.60;0.45;;;22.40;41.00;;;;;;6323772;28;20096;-52
2023/05/20 01:37:46;;;;;;;0.55;0.50;;;22.60;41.00;;;;;;6321149;28;20052;-53
2023/05/20 01:40:50;;;;;;;0.80;0.60;;;22.50;41.10;;;;;;6315067;28;20040;-51
2023/05/20 01:43:52;;;;;;;0.60;0.60;;;22.40;41.10;;;;;;6298115;28;20066;-52
2023/05/20 01:46:54;;;;;;;0.80;0.80;;;22.60;41.40;;;;;;6318815;28;20052;-53
2023/05/20 01:49:55;;;;;;;0.60;0.55;;;22.20;41.20;;;;;;6322171;28;20092;-53
2023/05/20 01:52:57;;;;;;;;;;;22.40;41.30;;;;;;6322723;28;20044;-53
2023/05/20 01:56:00;;;;;;;0.60;0.60;;;22.20;41.50;;;;;;6324510;28;19951;-53
2023/05/20 01:59:02;;;;;;;0.55;0.50;;;22.50;41.50;;;;;;6320528;28;20070;-53
2023/05/20 02:02:03;;;;;;;;;;;22.30;41.50;;;;;;6320533;28;20048;-51
2023/05/20 02:05:05;;;;;;;0.55;0.50;;;22.10;41.60;;;;;;6323318;28;19943;-53
2023/05/20 02:08:07;;;;;;;1.05;0.68;;;22.30;41.60;;;;;;6324609;28;20120;-51
2023/05/20 02:11:09;;;;;;;0.57;0.55;;;22.30;41.60;;;;;;6319586;28;20100;-53
2023/05/20 02:14:11;;;;;;;1.25;0.70;;;22.30;41.80;;;;;;6319410;28;20036;-53
2023/05/20 02:17:15;;;;;;;0.60;0.50;;;22.30;41.80;;;;;;6318676;28;20033;-53
2023/05/20 02:20:16;;;;;;;0.75;0.60;;;22.10;41.70;;;;;;6285150;28;20052;-53
2023/05/20 02:23:21;;;;;;;0.40;0.40;;;22.40;41.90;;;;;;6316767;28;20088;-52
2023/05/20 02:26:24;;;;;;;0.60;0.50;;;22.40;42.00;;;;;;6317385;28;20054;-50
2023/05/20 02:29:25;;;;;;;0.90;0.65;;;22.40;42.00;;;;;;6281712;28;20056;-49
2023/05/20 02:32:32;;;;;;;0.85;0.70;;;22.30;42.10;;;;;;6316146;28;20056;-52
2023/05/20 02:35:36;;;;;;;1.05;0.70;;;22.20;42.00;;;;;;6315789;28;20078;-51
2023/05/20 02:38:38;;;;;;;0.63;0.60;;;22.30;42.20;;;;;;6315343;28;20040;-49
2023/05/20 02:41:40;;;;;;;0.70;0.70;;;22.30;42.20;;;;;;6312266;28;20139;-50
2023/05/20 02:44:43;;;;;;;0.98;0.80;;;22.30;42.30;;;;;;6314628;28;20024;-52
2023/05/20 02:47:45;;;;;;;;;;;22.40;42.50;;;;;;6313914;28;20040;-50
2023/05/20 02:50:46;;;;;;;0.90;0.70;;;22.40;42.80;;;;;;6314284;28;20067;-49
2023/05/20 02:53:48;;;;;;;0.95;0.85;;;22.10;42.40;;;;;;6261912;28;20056;-51
2023/05/20 02:56:51;;;;;;;0.95;0.65;;;22.30;42.60;;;;;;6313704;28;20040;-47
2023/05/20 02:59:52;;;;;;;;;;;22.30;42.50;;;;;;6314542;28;20096;-53
2023/05/20 03:02:54;;;;;;;0.70;0.70;;;22.40;43.00;;;;;;6314235;28;19942;-52
2023/05/20 03:05:55;;;;;;;1.08;0.80;;;21.70;42.40;;;;;;6309974;28;20040;-50
2023/05/20 03:08:59;;;;;;;1.00;0.70;;;22.20;42.80;;;;;;6305410;28;20055;-51
2023/05/20 03:12:03;;;;;;;1.13;0.80;;;22.20;42.90;;;;;;6313383;28;20096;-51
2023/05/20 03:15:05;;;;;;;1.23;0.63;;;22.10;43.00;;;;;;6313681;28;20037;-52
2023/05/20 03:18:12;;;;;;;1.10;0.90;;;22.30;42.90;;;;;;6313573;28;20036;-50
2023/05/20 03:21:18;;;;;;;0.82;0.60;;;22.00;42.70;;;;;;6295539;28;20084;-50
2023/05/20 03:24:22;;;;;;;1.10;0.73;;;22.30;42.90;;;;;;6313485;28;20048;-47
2023/05/20 03:27:25;;;;;;;0.85;0.80;;;22.20;43.10;;;;;;6313480;28;20041;-47
2023/05/20 03:30:27;;;;;;;0.75;0.70;;;22.20;42.70;;;;;;6311558;28;20406;-52
2023/05/20 03:33:33;;;;;;;0.85;0.70;;;22.20;43.30;;;;;;6313540;28;20088;-53
2023/05/20 03:36:35;;;;;;;0.70;0.60;;;22.40;43.10;;;;;;6313072;28;20040;-47
2023/05/20 03:39:38;;;;;;;1.17;0.90;;;22.20;43.10;;;;;;6315176;28;20036;-52
2023/05/20 03:42:41;;;;;;;0.65;0.60;;;22.10;42.90;;;;;;6318002;28;20064;-51
2023/05/20 03:45:43;;;;;;;0.93;0.77;;;22.00;43.60;;;;;;6316453;28;20046;-49
2023/05/20 03:48:45;;;;;;;1.08;0.82;;;22.10;43.10;;;;;;6317506;28;20276;-49
2023/05/20 03:51:46;;;;;;;1.23;0.90;;;21.70;43.00;;;;;;6313813;28;20048;-50
2023/05/20 03:54:49;;;;;;;0.70;0.60;;;22.00;43.10;;;;;;6314744;28;20029;-48
2023/05/20 03:57:51;;;;;;;0.98;0.65;;;22.00;43.10;;;;;;6316544;28;20033;-52
2023/05/20 04:00:53;;;;;;;0.75;0.73;;;22.00;43.10;;;;;;6316095;28;20045;-47
2023/05/20 04:03:54;;;;;;;;;;;22.20;43.40;;;;;;6313674;28;20079;-48
2023/05/20 04:06:56;;;;;;;0.88;0.50;;;22.10;43.50;;;;;;6314980;28;19932;-48
2023/05/20 04:09:59;;;;;;;1.48;0.90;;;22.10;43.40;;;;;;6316772;28;20029;-50
2023/05/20 04:13:00;;;;;;;1.00;0.85;;;21.70;43.10;;;;;;6316665;28;20056;-50
2023/05/20 04:16:04;;;;;;;1.60;1.02;;;22.00;43.40;;;;;;6316520;28;20096;-50
2023/05/20 04:19:06;;;;;;;1.35;0.80;;;21.80;43.20;;;;;;6315889;28;20040;-50
2023/05/20 04:22:07;;;;;;;1.10;0.75;;;22.00;43.50;;;;;;6317304;28;20040;-49
2023/05/20 04:25:09;;;;;;;;;;;22.00;43.40;;;;;;6312923;28;20043;-46
2023/05/20 04:28:12;;;;;;;0.70;0.70;;;22.50;44.00;;;;;;6315443;28;20019;-49
2023/05/20 04:31:14;;;;;;;0.57;0.57;;;22.00;43.60;;;;;;6316311;28;20051;-52
2023/05/20 04:34:19;;;;;;;1.10;0.80;;;22.00;43.70;;;;;;6317372;28;20166;-47
2023/05/20 04:37:20;;;;;;;1.10;1.00;;;22.10;43.50;;;;;;6318272;28;20051;-53
2023/05/20 04:40:26;;;;;;;1.15;0.88;;;21.80;43.60;;;;;;6316166;28;20013;-50
2023/05/20 04:43:29;;;;;;;0.77;0.70;;;22.00;43.60;;;;;;6320399;28;20040;-51
2023/05/20 04:46:30;;;;;;;1.10;1.00;;;21.80;43.60;;;;;;6303189;28;20044;-50
2023/05/20 04:49:33;;;;;;;0.60;0.60;;;21.90;43.70;;;;;;6320699;28;20036;-49
2023/05/20 04:52:34;;;;;;;0.93;0.90;;;21.70;43.70;;;;;;6320914;28;20040;-50
2023/05/20 04:55:37;;;;;;;;;;;22.10;43.90;;;;;;6321200;28;20044;-51
2023/05/20 04:58:39;;;;;;;0.70;0.70;;;22.20;44.40;;;;;;6321115;28;19921;-46
2023/05/20 05:01:41;;;;;;;1.08;0.80;;;21.90;43.90;;;;;;6320536;28;20064;-48
2023/05/20 05:04:45;;;;;;;0.93;0.82;;;21.90;44.10;;;;;;6320566;28;20036;-51
2023/05/20 05:07:47;;;;;;;1.33;0.95;;;22.00;44.10;;;;;;6320381;28;20048;-49
2023/05/20 05:10:49;;;;;;;0.95;0.75;;;21.90;44.20;;;;;;6321602;28;20047;-47
2023/05/20 05:13:51;;;;;;;1.42;1.08;;;22.30;44.40;;;;;;6320639;28;20036;-50
2023/05/20 05:16:57;;;;;;;0.90;0.80;;;20.40;43.50;;;;;;6320792;28;20190;-50
2023/05/20 05:20:01;;;;;;;1.13;0.80;;;21.90;44.40;;;;;;6321111;28;20035;-49
2023/05/20 05:23:05;;;;;;;0.93;0.73;;;21.80;44.40;;;;;;6320830;28;20044;-48
2023/05/20 05:26:08;;;;;;;1.00;0.80;;;21.90;44.50;;;;;;6321126;28;20047;-49
2023/05/20 05:29:09;;;;;;;0.85;0.65;;;21.90;44.60;;;;;;6321861;28;20036;-51
2023/05/20 05:32:14;;;;;;;0.98;0.70;;;21.80;44.50;;;;;;6322146;28;20024;-46
2023/05/20 05:35:16;;;;;;;0.85;0.70;;;21.80;44.50;;;;;;6321593;28;20066;-51
2023/05/20 05:38:17;;;;;;;0.98;0.80;;;21.90;44.60;;;;;;6324560;28;20104;-51
2023/05/20 05:41:20;;;;;;;1.02;0.70;;;21.90;44.80;;;;;;6324357;28;20041;-52
2023/05/20 05:44:22;;;;;;;0.85;0.70;;;21.80;44.60;;;;;;6325805;28;20049;-48
2023/05/20 05:47:31;;;;;;;0.57;0.50;;;21.90;44.80;;;;;;6325853;28;20461;-48
2023/05/20 05:50:34;;;;;;;0.63;0.60;;;22.00;44.80;;;;;;6325390;28;20028;-51
2023/05/20 05:53:36;;;;;;;0.70;0.70;;;22.00;45.00;;;;;;6324760;28;20051;-50
2023/05/20 05:56:38;;;;;;;0.75;0.60;;;21.90;44.90;;;;;;6325735;28;20104;-50
2023/05/20 05:59:40;;;;;;;0.77;0.77;;;21.80;45.00;;;;;;6325737;28;20037;-47
2023/05/20 06:02:43;;;;;;;1.20;0.73;;;21.80;45.10;;;;;;6324654;28;20043;-47
2023/05/20 06:05:46;;;;;;;0.85;0.70;;;22.00;45.40;;;;;;6326307;28;20027;-52
2023/05/20 06:08:47;;;;;;;0.73;0.73;;;22.00;45.30;;;;;;6530788;22;20060;-47
2023/05/20 06:11:50;;;;;;;1.25;0.82;;;21.80;45.40;;;;;;6299857;28;20033;-53
2023/05/20 06:14:52;;;;;;;1.23;0.82;;;21.90;45.40;;;;;;6301816;28;20041;-50
2023/05/20 06:17:53;;;;;;;0.90;0.70;;;21.90;45.60;;;;;;6300447;28;20047;-53
2023/05/20 06:20:56;;;;;;;0.80;0.60;;;22.00;45.50;;;;;;6295823;28;20037;-49
2023/05/20 06:24:00;;;;;;;1.10;0.95;;;21.90;45.60;;;;;;6295442;28;20041;-52
2023/05/20 06:27:02;;;;;;;;;;;22.00;45.90;;;;;;6299190;28;20112;-50
2023/05/20 06:30:04;;;;;;;0.80;0.60;;;22.30;46.30;;;;;;6300019;28;19944;-53
2023/05/20 06:33:06;;;;;;;0.60;0.60;;;21.90;45.70;;;;;;6300495;28;20025;-49
2023/05/20 06:36:11;;;;;;;0.88;0.65;;;22.10;46.10;;;;;;7105485;22;20346;-51
2023/05/20 06:39:12;;;;;;;0.77;0.70;;;21.90;45.90;;;;;;6616744;22;20093;-52
2023/05/20 06:42:18;;;;;;;0.90;0.60;;;21.90;46.50;;;;;;6364050;22;20037;-52
2023/05/20 06:45:25;;;;;;;0.82;0.70;;;21.90;46.30;;;;;;6302091;28;20025;-50
2023/05/20 06:48:31;;;;;;;0.55;0.50;;;22.00;46.50;;;;;;6302023;28;20085;-52
2023/05/20 06:51:34;;;;;;;0.77;0.70;;;22.00;46.50;;;;;;6302149;28;20013;-52
2023/05/20 06:54:40;;;;;;;1.15;0.70;;;21.80;47.20;;;;;;6302164;28;20048;-54
2023/05/20 06:57:46;;;;;;;0.50;0.47;;;21.90;46.70;;;;;;6302334;28;20021;-52
2023/05/20 07:00:49;;;;;;;0.80;0.70;;;22.00;46.80;;;;;;6302884;28;20039;-52
2023/05/20 07:03:51;;;;;;;;;;;22.10;46.90;;;;;;6302717;28;20029;-49
2023/05/20 07:06:53;;;;;;;0.93;0.82;;;22.40;47.30;;;;;;6302321;28;19940;-52
2023/05/20 07:09:54;;;;;;;;;;;22.10;46.80;;;;;;6303247;28;20041;-53
2023/05/20 07:12:56;;;;;;;0.88;0.60;;;22.10;47.10;;;;;;6301648;28;19921;-49
2023/05/20 07:15:58;;;;;;;1.33;0.60;;;21.80;46.70;;;;;;6302161;28;20550;-52
2023/05/20 07:19:00;;;;;;;1.00;0.60;;;21.90;46.90;;;;;;6302707;28;20032;-52
2023/05/20 07:22:02;;;;;;;0.68;0.68;;;22.10;47.10;;;;;;6302138;28;20097;-48
2023/05/20 07:25:24;;;;;;;0.88;0.60;;;22.10;47.30;;;;;;6301965;28;20046;-52
2023/05/20 07:28:28;;;;;;;1.05;0.60;;;22.00;47.10;;;;;;6318878;22;20048;-52
2023/05/20 07:31:29;;;;;;;0.65;0.60;;;22.00;47.30;;;;;;6327278;28;20028;-53
2023/05/20 07:34:31;;;;;;;0.70;0.50;;;22.00;47.30;;;;;;6327113;28;20095;-52
2023/05/20 07:37:33;;;;;;;0.95;0.80;;;22.00;47.40;;;;;;6326271;28;20056;-49
2023/05/20 07:40:37;;;;;;;0.50;0.50;;;22.10;47.40;;;;;;6326875;28;20036;-51
2023/05/20 08:05:31;;;;;;;0.60;0.60;;;22.20;46.20;;;;;;7237823;23;20233;-49
2023/05/20 08:15:29;;;;;;;0.75;0.50;;;22.00;46.20;;;;;;7085873;23;20048;-49
2023/05/20 08:18:32;;;;;;;0.50;0.50;;;22.10;47.70;;;;;;6254760;28;20028;-50
2023/05/20 08:21:34;;;;;;;0.60;0.50;;;22.10;47.90;;;;;;6252980;28;20046;-54
2023/05/20 08:24:39;;;;;;;0.82;0.60;;;22.30;48.00;;;;;;6521601;23;20141;-43
2023/05/20 08:27:40;;;;;;;0.90;0.68;;;19.20;47.20;;;;;;6283620;23;20052;-52
2023/05/20 08:30:42;;;;;;;0.65;0.50;;;22.10;48.00;;;;;;6253505;28;20045;-52
2023/05/20 08:33:44;;;;;;;0.80;0.60;;;22.30;48.20;;;;;;6253466;28;20034;-49
2023/05/20 08:36:47;;;;;;;1.38;0.93;;;22.20;47.90;;;;;;6251941;28;20038;-48
2023/05/20 08:39:48;;;;;;;0.77;0.57;;;22.30;48.10;;;;;;6253637;28;20033;-50
2023/05/20 08:42:51;;;;;;;1.13;0.70;;;22.40;48.00;;;;;;6254093;28;20018;-50
2023/05/20 08:45:53;;;;;;;1.23;0.63;;;22.40;48.10;;;;;;6231516;28;20657;-56
2023/05/20 08:48:58;;;;;;;0.70;0.60;;;22.30;48.10;;;;;;6216039;28;20045;-57
2023/05/20 08:52:00;;;;;;;0.57;0.40;;;22.40;48.20;;;;;;6215009;28;20061;-56
2023/05/20 08:55:03;;;;;;;0.80;0.68;;;22.30;47.90;;;;;;6215102;28;20048;-53
2023/05/20 08:58:05;;;;;;;1.60;0.75;;;22.30;48.00;;;;;;6193738;28;20058;-56
2023/05/20 09:01:07;;;;;;;1.25;0.70;;;22.30;48.10;;;;;;6190218;28;20712;-52
2023/05/20 09:04:08;;;;;;;;;;;21.90;47.90;;;;;;6190397;28;20046;-57
2023/05/20 09:07:11;;;;;;;0.63;0.40;;;22.30;48.10;;;;;;6190128;28;19957;-55
2023/05/20 09:10:13;;;;;;;0.93;0.68;;;22.00;47.90;;;;;;6189680;28;20497;-54
2023/05/20 09:13:14;;;;;;;1.02;0.80;;;22.00;47.90;;;;;;6189345;28;20116;-54
2023/05/20 09:16:15;;;;;;;0.70;0.57;;;22.40;48.30;;;;;;6190899;28;20038;-56
2023/05/20 09:19:19;;;;;;;0.77;0.55;;;22.20;48.00;;;;;;6189447;28;20045;-55
2023/05/20 09:22:23;;;;;;;0.93;0.70;;;22.40;48.30;;;;;;6190369;28;20528;-57
2023/05/20 09:25:25;;;;;;;0.80;0.70;;;22.50;48.30;;;;;;6172585;28;20046;-56
2023/05/20 09:28:26;;;;;;;;;;;22.40;48.50;;;;;;6189923;28;20042;-57
2023/05/20 09:31:30;;;;;;;1.02;0.68;;;22.40;48.60;;;;;;6190013;28;20301;-55
2023/05/20 09:34:33;;;;;;;1.30;0.57;;;22.40;48.20;;;;;;6189745;28;20485;-56
2023/05/20 09:37:37;;;;;;;0.40;0.40;;;22.10;48.30;;;;;;6190266;28;20050;-54
2023/05/20 09:40:42;;;;;;;0.70;0.47;;;22.40;48.30;;;;;;6190460;28;20263;-57
2023/05/20 09:43:44;;;;;;;0.80;0.60;;;22.50;48.30;;;;;;6190023;28;20042;-56
2023/05/20 09:46:48;;;;;;;0.65;0.60;;;22.00;48.20;;;;;;6188583;28;20070;-56
2023/05/20 09:49:53;;;;;;;1.15;0.60;;;22.40;48.30;;;;;;6187887;28;20457;-54
2023/05/20 09:52:55;;;;;;;0.80;0.63;;;22.60;48.50;;;;;;6188937;28;20042;-56
2023/05/20 09:55:56;;;;;;;1.05;0.60;;;22.20;48.30;;;;;;6190365;28;20035;-55
2023/05/20 09:58:59;;;;;;;0.80;0.57;;;22.70;48.50;;;;;;6190356;28;20062;-56
2023/05/20 10:02:01;;;;;;;0.65;0.60;;;22.70;48.40;;;;;;6188704;28;20042;-56
2023/05/20 10:05:06;;;;;;;0.85;0.60;;;22.50;48.40;;;;;;6188635;28;20045;-55
2023/05/20 10:08:25;;;;;;;0.60;0.50;;;22.40;48.10;;;;;;6188536;28;20177;-57
2023/05/20 10:11:34;;;;;;;1.10;0.57;;;22.70;48.30;;;;;;6189339;28;20066;-54
2023/05/20 10:14:55;;;;;;;0.77;0.47;;;22.50;48.10;;;;;;6189976;28;20121;-57
2023/05/20 10:18:07;;;;;;;1.13;0.60;;;22.70;48.30;;;;;;6189311;28;20112;-56
2023/05/20 10:21:15;;;;;;;0.82;0.52;;;22.50;48.00;;;;;;6189321;28;20047;-55
2023/05/20 10:24:29;;;;;;;0.40;0.40;;;22.70;48.10;;;;;;6189387;28;20069;-55
2023/05/20 10:27:42;;;;;;;0.82;0.60;;;22.70;48.10;;;;;;6204280;28;20058;-56
2023/05/20 10:30:49;;;;;;;0.50;0.50;;;22.10;47.70;;;;;;6189651;28;20055;-56
2023/05/20 10:33:52;;;;;;;0.93;0.52;;;22.40;47.80;;;;;;6188678;28;20449;-55
2023/05/20 10:36:58;;;;;;;0.70;0.70;;;22.80;47.80;;;;;;6172673;28;20493;-54
2023/05/20 10:40:07;;;;;;;0.75;0.55;;;22.20;47.50;;;;;;6187830;28;20447;-57
2023/05/20 10:43:10;;;;;;;0.57;0.52;;;22.60;47.60;;;;;;6187031;28;20521;-53
2023/05/20 10:46:18;;;;;;;0.45;0.38;;;22.70;47.50;;;;;;6188793;28;20505;-54
2023/05/20 10:49:43;;;;;;;0.45;0.30;;;22.40;47.30;;;;;;6187919;28;20054;-55
2023/05/20 10:52:45;;;;;;;0.40;0.40;;;22.80;47.50;;;;;;6187624;28;20378;-56
2023/05/20 10:55:51;;;;;;;0.82;0.50;;;22.90;47.50;;;;;;6188888;28;20034;-56
2023/05/20 10:58:53;;;;;;;0.43;0.40;;;22.60;47.20;;;;;;6188960;28;20054;-54
2023/05/20 11:01:55;;;;;;;0.77;0.50;;;22.60;47.10;;;;;;6187294;28;20038;-55
2023/05/20 11:04:57;;;;;;;0.95;0.50;;;22.70;47.20;;;;;;6188729;28;20042;-55
2023/05/20 11:08:01;;;;;;;0.40;0.30;;;22.70;47.10;;;;;;6189017;28;20046;-55
2023/05/20 11:11:06;;;;;;;0.55;0.50;;;22.90;47.10;;;;;;6171048;28;20057;-57
2023/05/20 11:14:12;;;;;;;0.55;0.30;;;22.90;46.90;;;;;;6187494;28;20038;-56
2023/05/20 11:17:14;;;;;;;1.35;0.40;;;22.90;46.60;;;;;;6188508;28;20049;-56
2023/05/20 11:20:16;;;;;;;0.45;0.40;;;22.20;46.40;;;;;;6189064;28;20536;-56
2023/05/20 11:23:18;;;;;;;0.50;0.40;;;22.60;46.40;;;;;;6188403;28;20066;-56
2023/05/20 11:26:21;;;;;;;0.70;0.57;;;22.40;46.30;;;;;;6187860;28;20409;-56
2023/05/20 11:29:25;;;;;;;0.82;0.60;;;22.90;46.50;;;;;;6188230;28;20046;-56
2023/05/20 11:32:26;;;;;;;0.60;0.40;;;22.90;46.20;;;;;;6185675;28;20509;-57
2023/05/20 11:35:30;;;;;;;0.60;0.60;;;21.60;45.50;;;;;;6187615;28;20048;-55
2023/05/20 11:38:31;;;;;;;0.70;0.50;;;23.00;46.10;;;;;;6186391;28;20413;-52
2023/05/20 11:41:34;;;;;;;;;;;22.80;46.00;;;;;;6188767;28;20082;-57
2023/05/20 11:44:36;;;;;;;0.85;0.50;;;23.10;46.50;;;;;;6187500;28;20380;-56
2023/05/20 11:47:37;;;;;;;0.98;0.70;;;23.10;46.00;;;;;;6187991;28;20069;-52
2023/05/20 11:50:40;;;;;;;0.60;0.45;;;23.00;46.00;;;;;;6186919;28;20113;-55
2023/05/20 11:53:47;;;;;;;0.77;0.70;;;23.10;45.80;;;;;;6187751;28;20085;-54
2023/05/20 11:56:49;;;;;;;0.50;0.40;;;22.70;46.10;;;;;;6188016;28;20042;-54
2023/05/20 11:59:51;;;;;;;0.68;0.63;;;22.80;45.50;;;;;;6185367;28;20426;-55
2023/05/20 12:02:53;;;;;;;0.70;0.50;;;23.00;45.70;;;;;;6186063;28;20065;-54
2023/05/20 12:05:55;;;;;;;0.50;0.47;;;23.10;45.60;;;;;;6185458;28;20042;-56
2023/05/20 12:09:05;;;;;;;0.75;0.45;;;23.20;45.60;;;;;;6184797;28;20073;-54
2023/05/20 12:12:10;;;;;;;0.50;0.50;;;23.10;45.30;;;;;;6185429;28;20080;-55
2023/05/20 12:15:11;;;;;;;0.60;0.40;;;22.90;45.10;;;;;;6186573;28;20066;-56
2023/05/20 12:18:13;;;;;;;0.77;0.60;;;23.30;45.10;;;;;;6186385;28;20110;-56
2023/05/20 12:21:14;;;;;;;0.93;0.60;;;23.30;48.10;;;;;;6185729;28;20073;-56
2023/05/20 12:24:16;;;;;;;0.70;0.68;;;23.10;49.80;;;;;;6185473;28;20047;-54
2023/05/20 12:27:18;;;;;;;1.15;0.70;;;23.30;44.50;;;;;;6186206;28;20070;-54
2023/05/20 12:30:22;;;;;;;0.40;0.40;;;22.80;43.80;;;;;;6186076;28;20046;-55
2023/05/20 12:33:24;;;;;;;0.73;0.50;;;23.20;43.80;;;;;;6186437;28;20441;-55
2023/05/20 12:36:26;;;;;;;0.50;0.50;;;23.20;43.90;;;;;;6185974;28;20042;-54
2023/05/20 12:39:28;;;;;;;0.60;0.47;;;23.30;44.00;;;;;;6186761;28;20045;-56
2023/05/20 12:42:29;;;;;;;;;;;23.40;43.90;;;;;;6186755;28;20066;-56
2023/05/20 12:45:34;;;;;;;0.60;0.40;;;23.40;44.10;;;;;;6186006;28;20203;-54
2023/05/20 12:48:35;;;;;;;0.50;0.43;;;23.40;42.90;;;;;;6186077;28;20042;-55
2023/05/20 12:51:39;;;;;;;0.60;0.50;;;22.80;43.40;;;;;;6186720;28;20433;-56
2023/05/20 12:54:41;;;;;;;0.88;0.60;;;23.10;43.50;;;;;;6186142;28;20497;-56
2023/05/20 12:57:44;;;;;;;0.52;0.40;;;23.30;44.00;;;;;;6184994;28;20350;-55
2023/05/20 13:00:47;;;;;;;1.00;0.47;;;23.40;43.70;;;;;;6184521;28;20690;-57
2023/05/20 13:03:52;;;;;;;0.43;0.40;;;23.20;43.70;;;;;;6188154;28;20561;-55
2023/05/20 13:06:53;;;;;;;0.68;0.30;;;23.10;44.00;;;;;;6188741;28;20049;-56
2023/05/20 13:09:55;;;;;;;0.50;0.50;;;23.60;43.90;;;;;;6198313;28;20183;-49
2023/05/20 13:12:58;;;;;;;0.50;0.43;;;23.50;44.70;;;;;;6205277;28;20437;-49
2023/05/20 13:16:02;;;;;;;0.60;0.50;;;23.50;44.90;;;;;;6204628;28;20046;-47
2023/05/20 13:19:07;;;;;;;0.38;0.38;;;23.50;42.10;;;;;;6203234;28;20528;-47
2023/05/20 13:22:11;;;;;;;0.60;0.50;;;23.60;41.50;;;;;;6203274;28;20231;-47
2023/05/20 13:25:13;;;;;;;1.20;0.50;;;23.60;41.90;;;;;;6204059;28;20046;-49
2023/05/20 13:28:17;;;;;;;0.50;0.43;;;23.70;42.00;;;;;;6204344;28;20093;-48
2023/05/20 13:31:21;;;;;;;0.57;0.40;;;23.80;41.90;;;;;;6204178;28;20062;-46
2023/05/20 13:34:23;;;;;;;0.40;0.30;;;23.50;41.60;;;;;;6203928;28;20046;-48
2023/05/20 13:37:24;;;;;;;0.75;0.57;;;23.60;41.50;;;;;;6201049;28;20066;-47
2023/05/20 13:40:26;;;;;;;0.55;0.50;;;23.60;41.50;;;;;;6202075;28;20049;-46
2023/05/20 13:43:28;;;;;;;0.50;0.50;;;23.70;41.50;;;;;;6200809;28;20498;-46
2023/05/20 13:46:29;;;;;;;0.38;0.38;;;23.30;41.30;;;;;;6202457;28;20058;-48
2023/05/20 13:49:31;;;;;;;0.82;0.70;;;23.30;41.40;;;;;;6197392;28;20035;-48
2023/05/20 13:52:33;;;;;;;0.80;0.50;;;23.70;41.60;;;;;;6203468;28;20343;-50
2023/05/20 13:55:35;;;;;;;0.50;0.45;;;23.40;41.40;;;;;;6204531;28;20042;-48
2023/05/20 13:58:37;;;;;;;0.52;0.50;;;23.40;41.40;;;;;;6203479;28;20057;-46
2023/05/20 14:01:43;;;;;;;1.13;0.50;;;23.70;41.50;;;;;;6201682;28;20038;-49
2023/05/20 14:04:46;;;;;;;0.70;0.40;;;23.70;41.40;;;;;;6203500;28;20096;-47
2023/05/20 14:07:48;;;;;;;0.60;0.40;;;23.70;41.40;;;;;;6202641;28;20047;-48
2023/05/20 14:10:53;;;;;;;0.77;0.40;;;23.70;41.40;;;;;;6203328;28;20038;-49
2023/05/20 14:13:57;;;;;;;0.60;0.40;;;23.90;41.50;;;;;;6202586;28;20078;-47
2023/05/20 14:16:59;;;;;;;0.50;0.38;;;23.70;41.30;;;;;;6202422;28;20121;-46
2023/05/20 14:20:01;;;;;;;0.57;0.50;;;23.80;41.40;;;;;;6203381;28;20264;-46
2023/05/20 14:23:02;;;;;;;0.40;0.30;;;23.90;41.30;;;;;;6202703;28;20070;-47
2023/05/20 14:26:04;;;;;;;0.55;0.45;;;23.90;41.20;;;;;;6202502;28;20362;-45
2023/05/20 14:29:07;;;;;;;0.90;0.60;;;23.40;40.90;;;;;;6202355;28;20089;-46
2023/05/20 14:32:10;;;;;;;0.80;0.40;;;24.00;41.20;;;;;;6203717;28;20039;-49
2023/05/20 14:35:11;;;;;;;0.60;0.32;;;23.90;41.30;;;;;;6201416;28;20039;-48
2023/05/20 14:38:13;;;;;;;0.60;0.40;;;23.90;41.30;;;;;;6202385;28;20050;-49
2023/05/20 14:41:14;;;;;;;0.73;0.32;;;24.10;41.40;;;;;;6202125;28;20049;-48
2023/05/20 14:44:16;;;;;;;0.75;0.60;;;24.00;41.30;;;;;;6203503;28;20571;-50
2023/05/20 14:47:20;;;;;;;0.50;0.40;;;24.00;41.20;;;;;;6202897;28;20038;-47
2023/05/20 14:50:22;;;;;;;0.50;0.45;;;23.90;41.80;;;;;;6203296;28;20042;-48
2023/05/20 14:53:25;;;;;;;0.43;0.43;;;24.00;41.10;;;;;;6184739;28;20132;-46
2023/05/20 14:56:26;;;;;;;0.50;0.40;;;24.10;41.00;;;;;;6202484;28;20065;-49
2023/05/20 14:59:32;;;;;;;0.70;0.50;;;24.10;41.10;;;;;;6203037;28;20109;-48
2023/05/20 15:02:33;;;;;;;0.40;0.40;;;24.10;41.40;;;;;;6201801;28;20679;-50
2023/05/20 15:05:35;;;;;;;0.40;0.30;;;24.20;41.10;;;;;;6203178;28;20038;-46
2023/05/20 15:08:40;;;;;;;0.57;0.45;;;24.20;41.10;;;;;;6202334;28;20069;-48
2023/05/20 15:11:44;;;;;;;0.50;0.47;;;24.20;41.10;;;;;;6202360;28;20529;-48
2023/05/20 15:14:46;;;;;;;1.00;0.55;;;24.20;41.10;;;;;;6202133;28;20050;-49
2023/05/20 15:17:48;;;;;;;0.70;0.40;;;23.80;40.90;;;;;;6202643;28;20521;-49
2023/05/20 15:20:49;;;;;;;0.60;0.57;;;24.10;41.20;;;;;;6202570;28;20054;-50
2023/05/20 15:23:51;;;;;;;0.70;0.45;;;24.20;41.30;;;;;;6202498;28;20387;-47
2023/05/20 15:26:55;;;;;;;0.95;0.63;;;24.20;41.20;;;;;;6201334;28;20121;-50
2023/05/20 15:30:00;;;;;;;0.43;0.43;;;24.20;41.90;;;;;;6202335;28;20275;-50
2023/05/20 15:33:01;;;;;;;0.73;0.60;;;24.30;41.30;;;;;;6203509;28;20050;-46
2023/05/20 15:36:04;;;;;;;0.52;0.50;;;24.00;41.20;;;;;;6203533;28;20034;-49
2023/05/20 15:39:08;;;;;;;0.60;0.60;;;24.40;41.30;;;;;;6203323;28;20406;-51
2023/05/20 15:42:12;;;;;;;0.50;0.40;;;24.30;41.20;;;;;;6202235;28;20046;-45
2023/05/20 15:45:14;;;;;;;0.50;0.40;;;24.30;41.30;;;;;;6202528;28;20258;-45
2023/05/20 15:48:18;;;;;;;0.60;0.50;;;24.10;41.30;;;;;;6201542;28;20600;-47
2023/05/20 15:51:20;;;;;;;0.52;0.43;;;24.20;41.40;;;;;;6202219;28;20038;-47
2023/05/20 15:54:22;;;;;;;0.60;0.50;;;24.30;41.50;;;;;;6201926;28;20047;-48
2023/05/20 15:57:23;;;;;;;0.85;0.57;;;24.30;41.60;;;;;;6201106;28;20089;-48
2023/05/20 16:00:25;;;;;;;0.50;0.40;;;24.30;41.80;;;;;;6201967;28;20062;-48
2023/05/20 16:03:28;;;;;;;0.35;0.30;;;24.20;41.80;;;;;;6203539;28;20062;-47
2023/05/20 16:06:31;;;;;;;0.30;0.30;;;24.20;41.90;;;;;;6202751;28;20445;-50
2023/05/20 16:09:33;;;;;;;1.08;0.50;;;24.30;42.00;;;;;;6201909;28;20053;-48
2023/05/20 16:12:34;;;;;;;1.05;0.38;;;24.20;42.10;;;;;;6202687;28;20034;-47
2023/05/20 16:15:37;;;;;;;0.50;0.43;;;24.10;42.10;;;;;;6202192;28;20050;-48
2023/05/20 16:18:38;;;;;;;0.57;0.50;;;24.10;42.10;;;;;;6202208;28;20050;-48
2023/05/20 16:21:43;;;;;;;0.68;0.40;;;24.20;42.30;;;;;;6202024;28;20038;-48
2023/05/20 16:24:47;;;;;;;0.57;0.50;;;24.20;42.20;;;;;;6203209;28;20038;-48